Time;durP1;ratioP1;P1;durP2;ratioP2;P2;SDS_P1;SDS_P2;PMS_P1;PMS_P2;Temp;Humidity;BMP_temperature;BMP_pressure;BME280_temperature;BME280_humidity;BME280_pressure;Samples;Min_cycle;Max_cycle;Signal;HPM_P1;HPM_P2
2023/07/27 00:02:17;;;;;;;;;;;;;;;22.70;88.88;98414.94;5074688;28;1963;-71
2023/07/27 00:04:42;;;;;;;;;;;;;;;22.66;89.96;98391.16;5074572;28;786;-73
2023/07/27 00:07:09;;;;;;;;;;;;;;;22.61;89.69;98385.03;5074722;28;858;-74
2023/07/27 00:09:36;;;;;;;;;;;;;;;22.61;89.81;98382.22;5074528;28;886;-70
2023/07/27 00:12:03;;;;;;;;;;;;;;;22.56;90.18;98399.94;5074501;28;842;-72
2023/07/27 00:14:29;;;;;;;;;;;;;;;22.54;90.10;98399.69;5074646;28;802;-73
2023/07/27 00:16:56;;;;;;;;;;;;;;;22.55;90.17;98417.34;5074572;28;818;-70
2023/07/27 00:19:23;;;;;;;;;;;;;;;22.55;90.43;98412.50;5074454;28;826;-71
2023/07/27 00:21:53;;;;;;;;;;;;;;;22.54;90.89;98401.75;5074454;28;818;-73
2023/07/27 00:24:19;;;;;;;;;;;;;;;22.53;90.63;98414.28;5074248;28;790;-72
2023/07/27 00:26:46;;;;;;;;;;;;;;;22.51;91.16;98423.25;5074261;28;782;-69
2023/07/27 00:29:12;;;;;;;;;;;;;;;22.46;92.12;98440.91;5074287;28;865;-71
2023/07/27 00:31:40;;;;;;;;;;;;;;;22.38;93.93;98429.44;5074113;28;835;-73
2023/07/27 00:34:06;;;;;;;;;;;;;;;22.29;95.59;98434.59;5074046;28;858;-74
2023/07/27 00:36:32;;;;;;;;;;;;;;;22.24;95.94;98441.75;5073938;28;897;-74
2023/07/27 00:38:59;;;;;;;;;;;;;;;22.22;96.49;98459.16;5073910;28;870;-71
2023/07/27 00:41:26;;;;;;;;;;;;;;;22.17;98.04;98456.34;5074034;28;810;-70
2023/07/27 00:43:52;;;;;;;;;;;;;;;22.08;99.47;98451.72;5073848;28;1885;-70
2023/07/27 00:46:19;;;;;;;;;;;;;;;22.00;100.00;98454.31;5073727;28;965;-69
2023/07/27 00:48:46;;;;;;;;;;;;;;;21.99;100.00;98452.00;5073576;28;1232;-72
2023/07/27 00:51:12;;;;;;;;;;;;;;;21.91;100.00;98439.75;5073745;28;838;-72
2023/07/27 00:53:39;;;;;;;;;;;;;;;21.93;100.00;98432.31;5073685;28;960;-73
2023/07/27 00:56:06;;;;;;;;;;;;;;;21.89;100.00;98442.31;5073689;28;909;-71
2023/07/27 00:58:33;;;;;;;;;;;;;;;21.86;100.00;98426.47;5073547;28;814;-70
2023/07/27 01:01:01;;;;;;;;;;;;;;;21.81;100.00;98431.59;5072783;28;861;-72
2023/07/27 01:03:28;;;;;;;;;;;;;;;21.80;100.00;98432.09;5055570;28;1906;-72
2023/07/27 01:05:55;;;;;;;;;;;;;;;21.75;100.00;98428.00;5073458;28;822;-71
2023/07/27 01:08:21;;;;;;;;;;;;;;;21.74;100.00;98445.38;5073429;28;862;-70
2023/07/27 01:10:48;;;;;;;;;;;;;;;21.71;100.00;98447.19;5073375;28;842;-70
2023/07/27 01:13:37;;;;;;;;;;;;;;;21.75;100.00;98433.63;5073418;28;889;-73
2023/07/27 01:16:16;;;;;;;;;;;;;;;21.75;100.00;98461.00;5073362;28;861;-72
2023/07/27 01:19:19;;;;;;;;;;;;;;;21.73;100.00;98460.75;5073124;28;805;-74
2023/07/27 01:21:48;;;;;;;;;;;;;;;21.70;100.00;98470.97;5031204;28;1258;-69
2023/07/27 01:24:30;;;;;;;;;;;;;;;21.63;100.00;98465.09;5031048;28;1878;-74
2023/07/27 01:27:02;;;;;;;;;;;;;;;21.59;100.00;98471.75;5031046;28;879;-68
2023/07/27 01:29:34;;;;;;;;;;;;;;;21.59;100.00;98482.97;5030968;28;1061;-73
2023/07/27 01:32:00;;;;;;;;;;;;;;;21.61;100.00;98485.25;5031127;28;886;-73
2023/07/27 01:34:32;;;;;;;;;;;;;;;21.62;100.00;98500.88;5030817;28;802;-71
2023/07/27 01:37:02;;;;;;;;;;;;;;;21.61;100.00;98514.16;5031104;28;1067;-70
2023/07/27 01:39:30;;;;;;;;;;;;;;;21.62;100.00;98517.75;5030808;28;900;-69
2023/07/27 01:41:58;;;;;;;;;;;;;;;21.59;100.00;98507.50;5030657;28;1890;-72
2023/07/27 01:44:26;;;;;;;;;;;;;;;21.56;100.00;98517.72;5030776;28;920;-71
2023/07/27 01:46:59;;;;;;;;;;;;;;;21.54;100.00;98520.28;5013957;28;947;-70
2023/07/27 01:49:26;;;;;;;;;;;;;;;21.55;100.00;98513.38;5045384;28;1320;-69
2023/07/27 01:51:54;;;;;;;;;;;;;;;21.53;100.00;98509.53;5033800;28;1506;-72
2023/07/27 01:54:21;;;;;;;;;;;;;;;21.53;100.00;98523.59;5050579;28;930;-71
2023/07/27 01:56:49;;;;;;;;;;;;;;;21.51;100.00;98528.97;5069316;28;1396;-75
2023/07/27 01:59:16;;;;;;;;;;;;;;;21.56;100.00;98505.72;5072583;28;837;-69
2023/07/27 02:01:43;;;;;;;;;;;;;;;21.61;100.00;98502.13;5072289;28;860;-70
2023/07/27 02:04:09;;;;;;;;;;;;;;;21.63;100.00;98529.75;5072337;28;1898;-71
2023/07/27 02:06:35;;;;;;;;;;;;;;;21.61;100.00;98538.69;5072379;28;871;-72
2023/07/27 02:09:02;;;;;;;;;;;;;;;21.62;99.77;98512.13;5072432;28;830;-69
2023/07/27 02:11:29;;;;;;;;;;;;;;;21.65;98.93;98525.13;5072163;28;789;-69
2023/07/27 02:13:58;;;;;;;;;;;;;;;21.65;98.96;98541.25;5072576;28;822;-71
2023/07/27 02:16:34;;;;;;;;;;;;;;;21.65;98.19;98558.88;5072195;28;795;-74
2023/07/27 02:19:01;;;;;;;;;;;;;;;21.69;95.89;98576.28;5072255;28;878;-71
2023/07/27 02:21:29;;;;;;;;;;;;;;;21.77;94.79;98602.63;5072265;28;878;-70
2023/07/27 02:23:56;;;;;;;;;;;;;;;21.88;93.24;98609.53;5072112;28;1939;-73
2023/07/27 02:26:22;;;;;;;;;;;;;;;21.95;92.44;98604.16;5072131;28;948;-73
2023/07/27 02:28:49;;;;;;;;;;;;;;;21.98;91.38;98608.78;5072492;28;826;-73
2023/07/27 02:31:15;;;;;;;;;;;;;;;22.02;90.51;98602.91;5071941;28;810;-72
2023/07/27 02:33:42;;;;;;;;;;;;;;;22.06;90.09;98625.91;5072099;28;783;-72
2023/07/27 02:36:09;;;;;;;;;;;;;;;22.09;89.59;98621.31;5072072;28;869;-70
2023/07/27 02:38:36;;;;;;;;;;;;;;;22.10;89.63;98625.66;5072085;28;884;-71
2023/07/27 02:41:03;;;;;;;;;;;;;;;22.11;89.62;98622.34;5072023;28;814;-71
2023/07/27 02:43:30;;;;;;;;;;;;;;;22.11;88.97;98618.78;5071955;28;1885;-69
2023/07/27 02:45:59;;;;;;;;;;;;;;;22.11;88.11;98618.78;5072076;28;810;-73
2023/07/27 02:48:27;;;;;;;;;;;;;;;22.12;86.96;98621.06;5071870;28;1170;-71
2023/07/27 02:50:54;;;;;;;;;;;;;;;22.11;86.95;98632.84;5071991;28;945;-71
2023/07/27 02:53:20;;;;;;;;;;;;;;;22.07;86.41;98604.94;5071723;28;914;-69
2023/07/27 02:55:56;;;;;;;;;;;;;;;22.06;85.58;98614.66;5071704;28;970;-70
2023/07/27 02:58:22;;;;;;;;;;;;;;;22.02;85.30;98620.56;5071767;28;954;-71
2023/07/27 03:00:53;;;;;;;;;;;;;;;22.02;82.90;98628.22;5071624;28;881;-70
2023/07/27 03:03:20;;;;;;;;;;;;;;;22.03;82.40;98624.88;5071571;28;1902;-69
2023/07/27 03:05:47;;;;;;;;;;;;;;;22.01;82.30;98630.25;5071554;28;856;-69
2023/07/27 03:08:13;;;;;;;;;;;;;;;22.02;81.34;98625.41;5071551;28;862;-69
2023/07/27 03:10:40;;;;;;;;;;;;;;;22.03;80.78;98605.19;5069200;28;1453;-69
2023/07/27 03:13:07;;;;;;;;;;;;;;;22.05;80.71;98620.81;5071530;28;834;-70
2023/07/27 03:15:38;;;;;;;;;;;;;;;22.06;79.74;98639.97;5071461;28;850;-71
2023/07/27 03:18:05;;;;;;;;;;;;;;;22.09;78.13;98636.16;5071687;28;819;-74
2023/07/27 03:20:41;;;;;;;;;;;;;;;22.12;76.90;98631.56;5071522;28;873;-70
2023/07/27 03:23:10;;;;;;;;;;;;;;;22.12;75.81;98645.63;5071847;28;1910;-70
2023/07/27 03:25:37;;;;;;;;;;;;;;;22.12;75.41;98640.00;5075351;28;787;-67
2023/07/27 03:28:04;;;;;;;;;;;;;;;22.11;75.69;98646.91;5075237;28;885;-70
2023/07/27 03:30:31;;;;;;;;;;;;;;;22.07;75.42;98649.97;5075037;28;847;-71
2023/07/27 03:32:57;;;;;;;;;;;;;;;22.04;75.43;98659.44;5075172;28;806;-69
2023/07/27 03:35:24;;;;;;;;;;;;;;;22.02;74.87;98633.84;5075103;28;802;-70
2023/07/27 03:37:50;;;;;;;;;;;;;;;22.00;73.26;98622.34;5075135;28;858;-70
2023/07/27 03:40:19;;;;;;;;;;;;;;;21.99;72.09;98632.81;5057018;28;1259;-70
2023/07/27 03:42:46;;;;;;;;;;;;;;;21.97;71.28;98614.91;5056966;28;1941;-69
2023/07/27 03:45:13;;;;;;;;;;;;;;;21.93;70.60;98594.72;5075086;28;865;-71
2023/07/27 03:47:40;;;;;;;;;;;;;;;21.95;69.79;98595.72;5074897;28;1248;-71
2023/07/27 03:50:07;;;;;;;;;;;;;;;21.90;71.31;98592.91;5074910;28;815;-69
2023/07/27 03:52:34;;;;;;;;;;;;;;;21.86;71.24;98598.03;5074726;28;834;-68
2023/07/27 03:55:00;;;;;;;;;;;;;;;21.81;71.70;98605.94;5074697;28;935;-69
2023/07/27 03:57:27;;;;;;;;;;;;;;;21.86;71.13;98600.84;5074844;28;829;-72
2023/07/27 03:59:57;;;;;;;;;;;;;;;21.98;70.54;98620.03;5074715;28;885;-70
2023/07/27 04:02:24;;;;;;;;;;;;;;;22.02;69.20;98614.94;5074627;28;2357;-69
2023/07/27 04:04:51;;;;;;;;;;;;;;;22.01;68.84;98633.06;5074671;28;909;-70
2023/07/27 04:07:18;;;;;;;;;;;;;;;22.03;68.23;98629.75;5074391;28;1165;-72
2023/07/27 04:09:44;;;;;;;;;;;;;;;22.01;67.86;98640.75;5074515;28;818;-71
2023/07/27 04:12:12;;;;;;;;;;;;;;;22.00;68.00;98630.78;5074431;28;807;-71
2023/07/27 04:14:37;;;;;;;;;;;;;;;21.95;68.65;98668.84;5074685;28;842;-71
2023/07/27 04:17:04;;;;;;;;;;;;;;;21.89;69.15;98656.06;5074384;28;912;-72
2023/07/27 04:19:31;;;;;;;;;;;;;;;21.87;68.69;98665.03;5074354;28;806;-72
2023/07/27 04:21:58;;;;;;;;;;;;;;;21.87;68.47;98667.06;5056348;28;890;-68
2023/07/27 04:24:24;;;;;;;;;;;;;;;21.94;68.38;98675.78;5074127;28;1890;-71
2023/07/27 04:26:51;;;;;;;;;;;;;;;22.02;67.67;98662.00;5074205;28;811;-71
2023/07/27 04:29:17;;;;;;;;;;;;;;;22.09;67.17;98647.41;5074013;28;851;-69
2023/07/27 04:31:44;;;;;;;;;;;;;;;22.10;66.00;98667.88;5074173;28;932;-69
2023/07/27 04:34:13;;;;;;;;;;;;;;;22.21;65.64;98673.50;5074018;28;810;-69
2023/07/27 04:36:39;;;;;;;;;;;;;;;22.33;65.10;98672.25;5072873;28;869;-72
2023/07/27 04:39:06;;;;;;;;;;;;;;;22.43;63.75;98655.91;5073948;28;814;-71
2023/07/27 04:41:33;;;;;;;;;;;;;;;22.37;63.65;98657.94;5074235;28;880;-69
2023/07/27 04:44:00;;;;;;;;;;;;;;;22.43;63.73;98692.50;5073817;28;1943;-71
2023/07/27 04:46:27;;;;;;;;;;;;;;;22.51;63.24;98701.19;5073808;28;994;-73
2023/07/27 04:48:54;;;;;;;;;;;;;;;22.50;63.70;98737.03;5073566;28;1356;-72
2023/07/27 04:51:20;;;;;;;;;;;;;;;22.44;64.70;98744.69;5073715;28;842;-69
2023/07/27 04:53:46;;;;;;;;;;;;;;;22.41;64.83;98734.47;5055556;28;1255;-70
2023/07/27 04:56:13;;;;;;;;;;;;;;;22.46;64.33;98719.63;5073888;28;866;-70
2023/07/27 04:58:40;;;;;;;;;;;;;;;22.54;63.65;98709.38;5073412;28;795;-70
2023/07/27 05:01:07;;;;;;;;;;;;;;;22.52;63.62;98728.84;5073452;28;790;-69
2023/07/27 05:03:34;;;;;;;;;;;;;;;22.51;63.70;98760.31;5073381;28;1888;-69
2023/07/27 05:06:01;;;;;;;;;;;;;;;22.46;63.97;98775.91;5055299;28;1187;-69
2023/07/27 05:08:29;;;;;;;;;;;;;;;22.58;63.62;98805.63;5073310;28;920;-69
2023/07/27 05:10:56;;;;;;;;;;;;;;;22.58;63.68;98835.84;5073262;28;885;-70
2023/07/27 05:13:22;;;;;;;;;;;;;;;22.39;64.62;98825.03;5073248;28;811;-70
2023/07/27 05:15:49;;;;;;;;;;;;;;;22.24;64.61;98809.66;5073070;28;846;-70
2023/07/27 05:18:16;;;;;;;;;;;;;;;22.29;64.42;98825.78;5073194;28;903;-71
2023/07/27 05:20:43;;;;;;;;;;;;;;;22.29;64.25;98808.91;5072988;28;872;-70
2023/07/27 05:23:10;;;;;;;;;;;;;;;22.34;64.63;98811.75;5072920;28;1877;-70
2023/07/27 05:25:36;;;;;;;;;;;;;;;22.40;64.00;98834.25;5072986;28;818;-70
2023/07/27 05:28:03;;;;;;;;;;;;;;;22.40;63.14;98808.91;5072855;28;831;-69
2023/07/27 05:30:29;;;;;;;;;;;;;;;22.46;61.41;98783.59;5072908;28;810;-70
2023/07/27 05:32:56;;;;;;;;;;;;;;;22.42;60.31;98812.78;5073055;28;857;-70
2023/07/27 05:35:23;;;;;;;;;;;;;;;22.20;59.91;98812.69;5054865;28;1231;-69
2023/07/27 05:37:49;;;;;;;;;;;;;;;22.07;59.98;98785.00;5072658;28;934;-69
2023/07/27 05:40:16;;;;;;;;;;;;;;;21.84;61.43;98817.16;5072682;28;844;-71
2023/07/27 05:42:43;;;;;;;;;;;;;;;21.72;62.77;98828.34;5072772;28;1885;-70
2023/07/27 05:45:09;;;;;;;;;;;;;;;21.51;64.45;98816.47;5072636;28;846;-70
2023/07/27 05:47:36;;;;;;;;;;;;;;;21.36;65.85;98841.88;5072542;28;1003;-72
2023/07/27 05:50:03;;;;;;;;;;;;;;;21.23;67.04;98861.22;5072508;28;1308;-71
2023/07/27 05:52:29;;;;;;;;;;;;;;;21.18;67.79;98857.06;5072618;28;839;-70
2023/07/27 05:54:56;;;;;;;;;;;;;;;21.06;68.56;98874.31;5072797;28;827;-71
2023/07/27 05:57:23;;;;;;;;;;;;;;;20.90;68.45;98864.50;5072574;28;811;-70
2023/07/27 05:59:49;;;;;;;;;;;;;;;20.89;68.53;98835.66;5072629;28;808;-69
2023/07/27 06:02:16;;;;;;;;;;;;;;;20.86;68.30;98797.31;5072355;28;1971;-70
2023/07/27 06:04:42;;;;;;;;;;;;;;;20.75;69.44;98786.75;5072365;28;1178;-68
2023/07/27 06:07:09;;;;;;;;;;;;;;;20.71;70.55;98791.06;5072254;28;798;-69
2023/07/27 06:09:36;;;;;;;;;;;;;;;20.73;71.48;98827.81;5072181;28;831;-70
2023/07/27 06:12:11;;;;;;;;;;;;;;;20.73;71.94;98862.28;5072077;28;834;-69
2023/07/27 06:14:41;;;;;;;;;;;;;;;20.66;71.37;98856.34;5072226;28;853;-72
2023/07/27 06:17:08;;;;;;;;;;;;;;;20.53;71.65;98834.25;5072186;28;814;-73
2023/07/27 06:19:34;;;;;;;;;;;;;;;20.49;72.34;98797.19;5054237;28;1344;-70
2023/07/27 06:22:01;;;;;;;;;;;;;;;20.51;73.27;98758.94;5054144;28;823;-68
2023/07/27 06:24:28;;;;;;;;;;;;;;;20.04;81.26;98752.63;5071980;28;1941;-69
2023/07/27 06:26:55;;;;;;;;;;;;;;;19.81;82.49;98728.38;5053956;28;1243;-72
2023/07/27 06:29:21;;;;;;;;;;;;;;;19.99;84.13;98747.69;5071925;28;869;-69
2023/07/27 06:31:48;;;;;;;;;;;;;;;19.61;87.70;98768.34;5071998;28;889;-71
2023/07/27 06:34:15;;;;;;;;;;;;;;;18.05;100.00;98803.22;5071922;28;861;-69
2023/07/27 06:36:41;;;;;;;;;;;;;;;16.70;100.00;98809.25;5071829;28;838;-66
2023/07/27 06:39:09;;;;;;;;;;;;;;;15.91;100.00;98850.94;5072041;28;869;-60
2023/07/27 06:41:35;;;;;;;;;;;;;;;15.56;100.00;98853.94;5071867;28;957;-59
2023/07/27 06:44:02;;;;;;;;;;;;;;;15.27;100.00;98824.44;5071866;28;1925;-67
2023/07/27 06:46:29;;;;;;;;;;;;;;;14.98;100.00;98808.13;5071797;28;914;-69
2023/07/27 06:49:01;;;;;;;;;;;;;;;14.94;100.00;98803.91;5071692;28;1259;-73
2023/07/27 06:51:28;;;;;;;;;;;;;;;14.98;100.00;98796.19;5054102;28;1640;-66
2023/07/27 06:53:55;;;;;;;;;;;;;;;15.16;100.00;98799.06;5071693;28;843;-65
2023/07/27 06:56:21;;;;;;;;;;;;;;;15.48;100.00;98791.41;5071932;28;798;-65
2023/07/27 06:58:48;;;;;;;;;;;;;;;15.91;100.00;98804.34;5072883;28;854;-66
2023/07/27 07:04:17;;;;;;;;;;;;;;;17.30;100.00;98790.94;5075481;28;1930;-62
2023/07/27 07:06:45;;;;;;;;;;;;;;;17.60;100.00;98784.72;5075658;28;901;-62
2023/07/27 07:09:11;;;;;;;;;;;;;;;18.04;100.00;98767.34;5075807;28;843;-63
2023/07/27 07:11:38;;;;;;;;;;;;;;;18.12;100.00;98772.09;5075516;28;913;-62
2023/07/27 07:14:04;;;;;;;;;;;;;;;18.48;100.00;98781.38;5075425;28;822;-62
2023/07/27 07:16:31;;;;;;;;;;;;;;;18.53;100.00;98779.94;5075499;28;834;-62
2023/07/27 07:19:00;;;;;;;;;;;;;;;18.20;100.00;98780.09;5075371;28;862;-63
2023/07/27 07:21:27;;;;;;;;;;;;;;;18.12;100.00;98790.88;5075622;28;886;-63
2023/07/27 07:23:54;;;;;;;;;;;;;;;18.13;100.00;98793.19;5075196;28;1881;-65
2023/07/27 07:26:21;;;;;;;;;;;;;;;18.12;100.00;98790.88;5075146;28;790;-64
2023/07/27 07:28:47;;;;;;;;;;;;;;;17.96;100.00;98806.06;5075176;28;880;-65
2023/07/27 07:31:14;;;;;;;;;;;;;;;17.87;100.00;98803.34;5075048;28;957;-63
2023/07/27 07:33:41;;;;;;;;;;;;;;;17.74;100.00;98793.16;5075087;28;830;-62
2023/07/27 07:36:07;;;;;;;;;;;;;;;17.70;100.00;98800.16;5075023;28;802;-64
2023/07/27 07:38:34;;;;;;;;;;;;;;;17.73;100.00;98822.34;5075094;28;838;-63
2023/07/27 07:41:00;;;;;;;;;;;;;;;17.80;100.00;98840.78;5074899;28;954;-65
2023/07/27 07:43:27;;;;;;;;;;;;;;;17.73;100.00;98861.47;5075043;28;1941;-65
2023/07/27 07:45:54;;;;;;;;;;;;;;;17.79;100.00;98866.41;5074891;28;925;-63
2023/07/27 07:48:20;;;;;;;;;;;;;;;17.99;100.00;98858.25;5075139;28;1332;-64
2023/07/27 07:50:47;;;;;;;;;;;;;;;18.22;100.00;98858.69;5074991;28;861;-62
2023/07/27 07:53:13;;;;;;;;;;;;;;;18.19;100.00;98834.50;5074962;28;1191;-62
2023/07/27 07:55:39;;;;;;;;;;;;;;;18.28;100.00;98798.03;5056750;28;1645;-62
2023/07/27 07:58:06;;;;;;;;;;;;;;;18.26;100.00;98795.72;5074692;28;802;-64
2023/07/27 08:00:32;;;;;;;;;;;;;;;18.17;100.00;98838.53;5074597;28;901;-64
2023/07/27 08:02:59;;;;;;;;;;;;;;;18.21;100.00;98832.75;5074818;28;1975;-65
2023/07/27 08:05:26;;;;;;;;;;;;;;;18.88;100.00;98793.28;5074465;28;899;-64
2023/07/27 08:07:53;;;;;;;;;;;;;;;20.10;100.00;98798.31;5074473;28;877;-64
2023/07/27 08:10:20;;;;;;;;;;;;;;;19.74;100.00;98816.50;5074233;28;818;-64
2023/07/27 08:12:49;;;;;;;;;;;;;;;19.17;100.00;98789.66;5074369;28;823;-63
2023/07/27 08:15:17;;;;;;;;;;;;;;;18.79;100.00;98754.97;5056437;28;1212;-63
2023/07/27 08:17:44;;;;;;;;;;;;;;;18.56;100.00;98740.59;5074449;28;1209;-63
2023/07/27 08:20:10;;;;;;;;;;;;;;;18.41;100.00;98755.81;5074528;28;924;-64
2023/07/27 08:22:37;;;;;;;;;;;;;;;18.18;100.00;98761.00;5074265;28;1866;-69
2023/07/27 08:25:05;;;;;;;;;;;;;;;18.02;100.00;98773.41;5074279;28;1201;-69
2023/07/27 08:27:34;;;;;;;;;;;;;;;18.06;100.00;98767.63;5074390;28;868;-70
2023/07/27 08:30:02;;;;;;;;;;;;;;;19.01;100.00;98757.34;5074449;28;887;-73
2023/07/27 08:32:28;;;;;;;;;;;;;;;19.44;100.00;98777.34;5074165;28;783;-69
2023/07/27 08:34:55;;;;;;;;;;;;;;;18.89;100.00;98792.03;5074079;28;830;-68
2023/07/27 08:37:22;;;;;;;;;;;;;;;18.45;100.00;98804.72;5074136;28;858;-69
2023/07/27 08:39:49;;;;;;;;;;;;;;;18.30;100.00;98789.94;5073931;28;865;-69
2023/07/27 08:42:15;;;;;;;;;;;;;;;18.29;100.00;98811.56;5073889;28;1953;-70
2023/07/27 08:44:43;;;;;;;;;;;;;;;18.21;100.00;98832.75;5072701;28;1361;-72
2023/07/27 08:47:11;;;;;;;;;;;;;;;18.10;100.00;98880.84;5073719;28;1013;-67
2023/07/27 08:49:38;;;;;;;;;;;;;;;18.07;100.00;98926.53;5073601;28;1264;-74
2023/07/27 08:52:06;;;;;;;;;;;;;;;18.13;100.00;98977.75;5073772;28;866;-69
2023/07/27 08:54:32;;;;;;;;;;;;;;;18.18;100.00;98990.31;5055699;28;1318;-73
2023/07/27 08:56:59;;;;;;;;;;;;;;;18.10;100.00;98975.13;5073816;28;806;-70
2023/07/27 08:59:27;;;;;;;;;;;;;;;18.04;100.00;98932.31;5073643;28;873;-74
2023/07/27 09:01:53;;;;;;;;;;;;;;;17.92;100.00;98895.72;5055770;28;1225;-69
2023/07/27 09:04:20;;;;;;;;;;;;;;;17.52;100.00;98843.75;5055382;28;1906;-71
2023/07/27 09:06:50;;;;;;;;;;;;;;;17.03;100.00;98846.91;5073551;28;803;-70
2023/07/27 09:09:28;;;;;;;;;;;;;;;16.73;100.00;98905.22;5073341;28;845;-71
2023/07/27 09:11:55;;;;;;;;;;;;;;;15.77;100.00;98923.97;5073357;28;829;-73
2023/07/27 09:14:22;;;;;;;;;;;;;;;15.41;100.00;98864.88;5073379;28;783;-71
2023/07/27 09:45:21;;;;;;;;;;;;;;;14.52;100.00;98823.72;5584245;22;1653;-59
2023/07/27 09:47:48;;;;;;;;;;;;;;;14.58;100.00;98817.16;5052599;28;858;-59
2023/07/27 09:50:15;;;;;;;;;;;;;;;14.67;100.00;98771.94;5052615;28;853;-58
2023/07/27 09:52:43;;;;;;;;;;;;;;;14.73;100.00;98783.25;5052462;28;873;-57
2023/07/27 09:55:11;;;;;;;;;;;;;;;14.78;100.00;98827.16;5052516;28;822;-57
2023/07/27 09:57:38;;;;;;;;;;;;;;;14.84;100.00;98901.22;5052436;28;816;-58
2023/07/27 10:00:05;;;;;;;;;;;;;;;14.90;100.00;98924.44;5052376;28;798;-56
2023/07/27 10:02:35;;;;;;;;;;;;;;;14.95;100.00;98986.31;5052233;28;1918;-57
2023/07/27 10:05:03;;;;;;;;;;;;;;;15.00;100.00;99030.25;5052357;28;880;-57
2023/07/27 10:07:30;;;;;;;;;;;;;;;15.08;100.00;99024.00;5052149;28;954;-57
2023/07/27 10:10:17;;;;;;;;;;;;;;;15.14;100.00;99018.59;5052236;28;806;-57
2023/07/27 10:12:43;;;;;;;;;;;;;;;15.18;100.00;99005.34;5044766;28;1273;-57
2023/07/27 10:15:20;;;;;;;;;;;;;;;15.35;100.00;98999.56;5052011;28;919;-57
2023/07/27 10:17:50;;;;;;;;;;;;;;;15.49;100.00;98997.03;5052136;28;794;-57
2023/07/27 10:20:27;;;;;;;;;;;;;;;15.62;100.00;98999.72;5052096;28;868;-57
2023/07/27 10:23:13;;;;;;;;;;;;;;;15.77;100.00;99013.91;5051954;28;1893;-57
2023/07/27 10:25:55;;;;;;;;;;;;;;;15.90;100.00;99000.66;5051909;28;806;-57
2023/07/27 10:28:43;;;;;;;;;;;;;;;15.99;100.00;98988.75;5051908;28;865;-57
2023/07/27 10:31:22;;;;;;;;;;;;;;;16.07;100.00;98980.91;5051874;28;826;-57
2023/07/27 10:33:53;;;;;;;;;;;;;;;16.17;100.00;98985.25;5050950;28;893;-58
2023/07/27 10:36:22;;;;;;;;;;;;;;;16.30;100.00;98987.91;5051908;28;857;-57
2023/07/27 10:38:56;;;;;;;;;;;;;;;16.45;100.00;98993.66;5033866;28;1232;-57
2023/07/27 10:41:24;;;;;;;;;;;;;;;16.61;100.00;98985.03;5051830;28;802;-57
2023/07/27 10:44:10;;;;;;;;;;;;;;;16.70;100.00;98987.03;5033738;28;1973;-57
2023/07/27 10:46:38;;;;;;;;;;;;;;;16.72;100.00;98965.03;5051422;28;1229;-56
2023/07/27 10:49:17;;;;;;;;;;;;;;;16.70;100.00;98945.19;5051716;28;854;-55
2023/07/27 10:51:45;;;;;;;;;;;;;;;16.94;100.00;98926.63;5051707;28;814;-57
2023/07/27 10:54:13;;;;;;;;;;;;;;;17.34;100.00;98961.88;5051589;28;862;-56
2023/07/27 10:56:42;;;;;;;;;;;;;;;17.87;100.00;98991.38;5052000;28;834;-57
2023/07/27 10:59:13;;;;;;;;;;;;;;;18.35;100.00;99005.44;5051565;28;814;-57
2023/07/27 11:01:40;;;;;;;;;;;;;;;18.72;100.00;98993.25;5051605;28;847;-57
2023/07/27 11:04:07;;;;;;;;;;;;;;;18.93;100.00;99005.41;5051469;28;1981;-57
2023/07/27 11:06:43;;;;;;;;;;;;;;;19.23;100.00;99017.41;5051566;28;858;-57
2023/07/27 11:09:11;;;;;;;;;;;;;;;19.68;100.00;99035.03;5051487;28;881;-57
2023/07/27 11:11:39;;;;;;;;;;;;;;;19.83;100.00;99035.03;5051494;28;834;-57
2023/07/27 11:14:06;;;;;;;;;;;;;;;19.86;100.00;99034.06;5051435;28;866;-56
2023/07/27 11:16:37;;;;;;;;;;;;;;;19.30;100.00;99028.22;5032796;28;1196;-56
2023/07/27 11:19:04;;;;;;;;;;;;;;;18.73;100.00;99029.16;5051491;28;897;-56
2023/07/27 11:21:32;;;;;;;;;;;;;;;18.40;100.00;99015.22;5051391;28;855;-57
2023/07/27 11:23:59;;;;;;;;;;;;;;;18.04;100.00;99011.34;5051559;28;1914;-56
2023/07/27 11:26:26;;;;;;;;;;;;;;;17.94;100.00;99001.44;5051627;28;798;-57
2023/07/27 11:28:55;;;;;;;;;;;;;;;17.99;100.00;99005.63;5051396;28;941;-56
2023/07/27 11:31:22;;;;;;;;;;;;;;;18.04;100.00;99005.00;5051326;28;901;-57
2023/07/27 11:33:49;;;;;;;;;;;;;;;18.09;100.00;98999.53;5033410;28;1290;-57
2023/07/27 11:36:16;;;;;;;;;;;;;;;18.09;100.00;98996.75;5051256;28;834;-56
2023/07/27 11:38:42;;;;;;;;;;;;;;;17.81;100.00;98962.50;5051208;28;908;-55
2023/07/27 11:41:08;;;;;;;;;;;;;;;17.38;100.00;98930.22;5051588;28;861;-56
2023/07/27 11:43:41;;;;;;;;;;;;;;;17.16;100.00;98905.31;5051014;28;1955;-57
2023/07/27 11:46:08;;;;;;;;;;;;;;;17.09;100.00;98884.88;5033116;28;1230;-57
2023/07/27 11:48:35;;;;;;;;;;;;;;;17.08;100.00;98894.47;5034944;28;798;-55
2023/07/27 11:51:02;;;;;;;;;;;;;;;17.11;100.00;98906.72;5034847;28;870;-57
2023/07/27 11:53:28;;;;;;;;;;;;;;;17.36;100.00;98919.53;5034848;28;862;-58
2023/07/27 11:55:55;;;;;;;;;;;;;;;17.82;100.00;98908.19;5034745;28;822;-57
2023/07/27 11:58:30;;;;;;;;;;;;;;;18.49;100.00;98920.03;5034853;28;830;-58
2023/07/27 12:00:56;;;;;;;;;;;;;;;19.00;100.00;98912.59;5034751;28;841;-57
2023/07/27 12:03:24;;;;;;;;;;;;;;;19.70;100.00;98920.41;5034845;28;1930;-57
2023/07/27 12:05:56;;;;;;;;;;;;;;;20.01;100.00;98921.09;5034768;28;873;-56
2023/07/27 12:08:24;;;;;;;;;;;;;;;20.07;100.00;98910.72;5034646;28;1019;-58
2023/07/27 12:10:51;;;;;;;;;;;;;;;20.28;100.00;98919.94;5034496;28;897;-57
2023/07/27 12:13:21;;;;;;;;;;;;;;;20.20;100.00;98930.78;5034363;28;869;-56
2023/07/27 12:15:56;;;;;;;;;;;;;;;20.46;100.00;98930.88;5033119;28;1267;-58
2023/07/27 12:18:24;;;;;;;;;;;;;;;20.50;100.00;98931.41;5034401;28;810;-57
2023/07/27 12:20:51;;;;;;;;;;;;;;;20.09;100.00;98950.28;5034634;28;877;-58
2023/07/27 12:23:18;;;;;;;;;;;;;;;19.79;100.00;98965.13;5034140;28;1882;-58
2023/07/27 12:25:45;;;;;;;;;;;;;;;19.62;100.00;98989.31;5034388;28;846;-58
2023/07/27 12:28:11;;;;;;;;;;;;;;;19.38;100.00;99001.38;5034178;28;854;-57
2023/07/27 12:30:38;;;;;;;;;;;;;;;19.27;100.00;99006.03;5034174;28;828;-58
2023/07/27 12:33:05;;;;;;;;;;;;;;;19.27;100.00;99000.44;5034307;28;826;-58
2023/07/27 12:35:31;;;;;;;;;;;;;;;19.28;100.00;99027.19;5034362;28;810;-58
2023/07/27 12:37:58;;;;;;;;;;;;;;;19.19;100.00;99058.84;5033954;28;906;-57
2023/07/27 12:40:25;;;;;;;;;;;;;;;19.07;100.00;99069.03;5034034;28;861;-58
2023/07/27 12:42:52;;;;;;;;;;;;;;;18.76;100.00;99084.16;5033762;28;1949;-58
2023/07/27 12:45:19;;;;;;;;;;;;;;;18.27;100.00;99079.78;5035798;28;1323;-58
2023/07/27 12:47:45;;;;;;;;;;;;;;;17.92;100.00;99091.41;5053773;28;845;-58
2023/07/27 12:50:12;;;;;;;;;;;;;;;17.63;100.00;99086.31;5035808;28;1208;-58
2023/07/27 12:52:41;;;;;;;;;;;;;;;17.40;100.00;99090.50;5053705;28;791;-58
2023/07/27 12:55:17;;;;;;;;;;;;;;;17.28;100.00;99095.03;5053513;28;913;-58
2023/07/27 12:57:44;;;;;;;;;;;;;;;17.20;100.00;99104.97;5052734;28;854;-58
2023/07/27 13:00:15;;;;;;;;;;;;;;;17.06;100.00;99099.97;5053460;28;807;-58
2023/07/27 13:02:43;;;;;;;;;;;;;;;16.97;100.00;99086.78;5053466;28;1913;-58
2023/07/27 13:05:12;;;;;;;;;;;;;;;16.85;100.00;99063.34;5053409;28;956;-58
2023/07/27 13:07:39;;;;;;;;;;;;;;;16.89;100.00;99040.88;5053407;28;842;-58
2023/07/27 13:10:06;;;;;;;;;;;;;;;16.96;100.00;99032.19;5053246;28;897;-59
2023/07/27 13:12:32;;;;;;;;;;;;;;;17.06;100.00;99049.72;5053207;28;845;-58
2023/07/27 13:15:02;;;;;;;;;;;;;;;17.23;100.00;99045.38;5053237;28;876;-58
2023/07/27 13:17:29;;;;;;;;;;;;;;;17.48;100.00;99027.50;5053126;28;912;-58
2023/07/27 13:19:56;;;;;;;;;;;;;;;17.50;100.00;99004.69;5053167;28;840;-58
2023/07/27 13:22:29;;;;;;;;;;;;;;;17.86;100.00;98997.44;5052999;28;890;-58
2023/07/27 13:24:57;;;;;;;;;;;;;;;18.52;100.00;99003.03;5053317;28;881;-58
2023/07/27 13:27:24;;;;;;;;;;;;;;;19.19;100.00;99016.81;5035242;28;1528;-58
2023/07/27 13:29:50;;;;;;;;;;;;;;;19.59;100.00;99029.53;5053233;28;846;-57
2023/07/27 13:32:17;;;;;;;;;;;;;;;20.10;100.00;99033.94;5053038;28;834;-57
2023/07/27 13:34:43;;;;;;;;;;;;;;;20.60;100.00;99033.91;5053428;28;775;-57